createdAt,value
2023-09-20T00:00:24.647Z,79.16
2023-09-20T00:01:24.662Z,79.46
2023-09-20T00:02:24.799Z,79.57
2023-09-20T00:03:24.742Z,79.57
2023-09-20T00:04:24.656Z,79.36
2023-09-20T00:05:24.619Z,79.77
2023-09-20T00:06:25.581Z,79.46
2023-09-20T00:07:24.652Z,79.87
2023-09-20T00:08:24.619Z,79.57
2023-09-20T00:09:24.597Z,79.77
2023-09-20T00:10:24.553Z,79.87
2023-09-20T00:11:24.580Z,79.57
2023-09-20T00:12:24.545Z,80.07
2023-09-20T00:13:24.526Z,79.77
2023-09-20T00:14:24.556Z,79.57
2023-09-20T00:15:24.496Z,79.97
2023-09-20T00:16:24.503Z,79.67
2023-09-20T00:17:24.555Z,79.97
2023-09-20T00:18:25.100Z,79.46
2023-09-20T00:19:24.509Z,79.87
2023-09-20T00:20:24.474Z,79.77
2023-09-20T00:21:24.466Z,79.63
2023-09-20T00:22:24.431Z,79.87
2023-09-20T00:23:24.459Z,79.67
2023-09-20T00:24:24.416Z,79.93
2023-09-20T00:25:24.401Z,79.57
2023-09-20T00:26:24.460Z,79.46
2023-09-20T00:27:24.398Z,79.57
2023-09-20T00:28:24.375Z,79.73
2023-09-20T00:29:24.375Z,79.57
2023-09-20T00:30:24.373Z,79.77
2023-09-20T00:31:24.422Z,79.97
2023-09-20T00:32:24.455Z,80.18
2023-09-20T00:33:24.342Z,79.77
2023-09-20T00:34:24.336Z,80.47
2023-09-20T00:35:24.370Z,80.38
2023-09-20T00:36:24.296Z,79.77
2023-09-20T00:37:24.294Z,80.38
2023-09-20T00:38:24.339Z,79.97
2023-09-20T00:39:24.269Z,80.18
2023-09-20T00:40:24.270Z,80.47
2023-09-20T00:41:24.339Z,80.18
2023-09-20T00:42:24.252Z,79.97
2023-09-20T00:43:24.226Z,80.38
2023-09-20T00:44:25.254Z,80.98
2023-09-20T00:45:24.253Z,80.18
2023-09-20T00:46:24.196Z,80.78
2023-09-20T00:47:24.254Z,80.58
2023-09-20T00:48:24.187Z,80.58
2023-09-20T00:49:24.201Z,80.98
2023-09-20T00:50:24.204Z,80.88
2023-09-20T00:51:24.148Z,80.78
2023-09-20T00:52:24.134Z,80.78
2023-09-20T00:53:24.224Z,80.98
2023-09-20T00:54:24.181Z,80.44
2023-09-20T00:55:24.107Z,80.54
2023-09-20T00:56:25.130Z,80.07
2023-09-20T00:57:24.103Z,80.38
2023-09-20T00:58:24.101Z,80.24
2023-09-20T00:59:24.105Z,80.24
2023-09-20T01:00:24.062Z,80.04
2023-09-20T01:01:24.073Z,80.24
2023-09-20T01:02:24.132Z,79.83
2023-09-20T01:03:24.156Z,80.24
2023-09-20T01:04:24.068Z,79.83
2023-09-20T01:05:24.188Z,80.34
2023-09-20T01:06:24.010Z,80.54
2023-09-20T01:07:23.995Z,79.83
2023-09-20T01:08:24.042Z,80.34
2023-09-20T01:09:23.981Z,80.84
2023-09-20T01:10:23.965Z,80.78
2023-09-20T01:11:24.001Z,80.64
2023-09-20T01:12:23.967Z,80.84
2023-09-20T01:13:23.956Z,80.84
2023-09-20T01:14:23.944Z,81.05
2023-09-20T01:15:23.928Z,80.88
2023-09-20T01:16:23.947Z,80.74
2023-09-20T01:17:24.017Z,80.74
2023-09-20T01:18:23.942Z,80.54
2023-09-20T01:19:23.876Z,80.78
2023-09-20T01:20:23.910Z,80.68
2023-09-20T01:21:23.905Z,80.88
2023-09-20T01:22:23.863Z,80.38
2023-09-20T01:23:23.908Z,80.54
2023-09-20T01:24:23.820Z,80.74
2023-09-20T01:25:23.852Z,80.68
2023-09-20T01:26:23.859Z,80.58
2023-09-20T01:27:23.797Z,80.54
2023-09-20T01:28:23.791Z,81.45
2023-09-20T01:29:23.880Z,80.98
2023-09-20T01:30:23.763Z,80.78
2023-09-20T01:31:23.817Z,80.58
2023-09-20T01:32:23.852Z,80.98
2023-09-20T01:33:23.803Z,80.58
2023-09-20T01:34:23.737Z,80.58
2023-09-20T01:35:23.769Z,80.58
2023-09-20T01:36:23.732Z,80.68
2023-09-20T01:37:23.704Z,80.47
2023-09-20T01:38:23.708Z,81.09
2023-09-20T01:39:23.703Z,81.05
2023-09-20T01:40:23.720Z,81.09
2023-09-20T01:41:23.709Z,81.39
2023-09-20T01:42:23.658Z,81.25
2023-09-20T01:43:23.655Z,81.29
2023-09-20T01:44:23.709Z,81.18
2023-09-20T01:45:23.654Z,80.78
2023-09-20T01:46:23.681Z,81.59
2023-09-20T01:47:23.670Z,81.29
2023-09-20T01:48:23.729Z,81.18
2023-09-20T01:49:23.613Z,81.69
2023-09-20T01:50:23.648Z,82.10
2023-09-20T01:51:23.600Z,81.90
2023-09-20T01:52:23.561Z,81.69
2023-09-20T01:53:23.596Z,81.79
2023-09-20T01:54:23.564Z,81.09
2023-09-20T01:55:23.556Z,81.18
2023-09-20T01:56:23.545Z,81.29
2023-09-20T01:57:23.507Z,81.29
2023-09-20T01:58:24.569Z,81.93
2023-09-20T01:59:23.553Z,82.54
2023-09-20T02:00:23.511Z,81.29
2023-09-20T02:01:23.481Z,82.24
2023-09-20T02:02:23.553Z,82.14
2023-09-20T02:03:23.562Z,82.14
2023-09-20T02:04:23.476Z,82.14
2023-09-20T02:05:23.505Z,81.99
2023-09-20T02:06:23.425Z,82.24
2023-09-20T02:07:23.420Z,82.54
2023-09-20T02:08:23.462Z,82.34
2023-09-20T02:09:23.403Z,82.75
2023-09-20T02:10:23.404Z,82.54
2023-09-20T02:11:23.466Z,82.54
2023-09-20T02:12:23.405Z,82.54
2023-09-20T02:13:23.387Z,82.34
2023-09-20T02:14:23.400Z,83.04
2023-09-20T02:15:23.354Z,82.95
2023-09-20T02:16:23.392Z,83.04
2023-09-20T02:17:23.358Z,82.89
2023-09-20T02:18:23.398Z,82.95
2023-09-20T02:19:23.312Z,83.04
2023-09-20T02:20:23.369Z,82.84
2023-09-20T02:21:23.277Z,82.44
2023-09-20T02:22:23.299Z,83.04
2023-09-20T02:23:23.272Z,82.75
2023-09-20T02:24:23.248Z,82.84
2023-09-20T02:25:23.234Z,83.35
2023-09-20T02:26:23.271Z,83.35
2023-09-20T02:27:23.261Z,83.15
2023-09-20T02:28:23.213Z,83.18
2023-09-20T02:29:23.217Z,83.04
2023-09-20T02:30:23.205Z,83.15
2023-09-20T02:31:23.219Z,83.35
2023-09-20T02:32:23.205Z,83.55
2023-09-20T02:33:23.180Z,83.69
2023-09-20T02:34:23.145Z,83.90
2023-09-20T02:35:23.141Z,84.41
2023-09-20T02:36:23.142Z,84.27
2023-09-20T02:37:23.118Z,84.20
2023-09-20T02:38:23.142Z,84.10
2023-09-20T02:39:23.122Z,84.10
2023-09-20T02:40:23.082Z,84.20
2023-09-20T02:41:23.126Z,84.10
2023-09-20T02:42:24.076Z,84.10
2023-09-20T02:43:23.066Z,84.30
2023-09-20T02:44:23.091Z,84.30
2023-09-20T02:45:23.059Z,84.50
2023-09-20T02:46:23.055Z,84.41
2023-09-20T02:47:23.093Z,84.41
2023-09-20T02:48:23.042Z,84.50
2023-09-20T02:49:23.002Z,84.61
2023-09-20T02:50:23.034Z,84.30
2023-09-20T02:51:22.984Z,84.61
2023-09-20T02:52:22.968Z,84.41
2023-09-20T02:53:23.052Z,84.61
2023-09-20T02:54:22.966Z,84.30
2023-09-20T02:55:22.957Z,84.30
2023-09-20T02:56:22.989Z,84.10
2023-09-20T02:57:22.928Z,84.70
2023-09-20T02:58:22.915Z,84.50
2023-09-20T02:59:22.943Z,84.41
2023-09-20T03:00:22.909Z,84.30
2023-09-20T03:01:22.902Z,84.61
2023-09-20T03:02:22.961Z,84.95
2023-09-20T03:03:23.021Z,84.50
2023-09-20T03:04:22.925Z,84.50
2023-09-20T03:05:22.941Z,84.30
2023-09-20T03:06:22.832Z,84.64
2023-09-20T03:07:22.819Z,84.70
2023-09-20T03:08:22.834Z,85.11
2023-09-20T03:09:22.820Z,85.01
2023-09-20T03:10:22.785Z,84.70
2023-09-20T03:11:22.815Z,85.01
2023-09-20T03:12:22.775Z,84.70
2023-09-20T03:13:22.784Z,84.85
2023-09-20T03:14:22.764Z,84.81
2023-09-20T03:15:22.788Z,85.01
2023-09-20T03:16:22.775Z,84.91
2023-09-20T03:17:22.749Z,84.91
2023-09-20T03:18:22.802Z,84.95
2023-09-20T03:19:22.697Z,84.81
2023-09-20T03:20:22.769Z,84.70
2023-09-20T03:21:22.708Z,85.01
2023-09-20T03:22:22.692Z,85.21
2023-09-20T03:23:22.712Z,84.91
2023-09-20T03:24:22.655Z,84.70
2023-09-20T03:25:22.643Z,85.11
2023-09-20T03:26:22.697Z,85.52
2023-09-20T03:27:22.651Z,85.56
2023-09-20T03:28:22.631Z,85.36
2023-09-20T03:29:22.627Z,85.62
2023-09-20T03:30:22.595Z,85.31
2023-09-20T03:31:22.750Z,85.66
2023-09-20T03:32:23.648Z,85.66
2023-09-20T03:33:23.015Z,85.52
2023-09-20T03:34:22.562Z,85.66
2023-09-20T03:35:22.614Z,85.31
2023-09-20T03:36:22.548Z,85.96
2023-09-20T03:37:22.551Z,85.76
2023-09-20T03:38:22.723Z,85.96
2023-09-20T03:39:22.533Z,85.96
2023-09-20T03:40:22.518Z,86.07
2023-09-20T03:41:22.569Z,86.07
2023-09-20T03:42:22.482Z,85.86
2023-09-20T03:43:22.534Z,85.96
2023-09-20T03:44:22.562Z,86.07
2023-09-20T03:45:24.698Z,85.96
2023-09-20T03:46:23.495Z,86.07
2023-09-20T03:47:22.532Z,85.96
2023-09-20T03:48:22.572Z,86.47
2023-09-20T03:49:22.409Z,86.57
2023-09-20T03:50:22.432Z,86.77
2023-09-20T03:51:22.401Z,86.51
2023-09-20T03:52:22.380Z,86.82
2023-09-20T03:53:22.403Z,86.82
2023-09-20T03:54:22.366Z,87.12
2023-09-20T03:55:22.366Z,87.02
2023-09-20T03:56:22.412Z,86.91
2023-09-20T03:57:22.329Z,87.02
2023-09-20T03:58:22.319Z,87.12
2023-09-20T03:59:22.334Z,87.02
2023-09-20T04:00:22.301Z,87.32
2023-09-20T04:01:22.364Z,87.32
2023-09-20T04:02:22.299Z,87.32
2023-09-20T04:03:22.371Z,87.32
2023-09-20T04:04:22.306Z,87.63
2023-09-20T04:05:38.879Z,87.32
2023-09-20T04:06:24.237Z,87.32
2023-09-20T04:07:22.229Z,87.32
2023-09-20T04:08:22.239Z,87.73
2023-09-20T04:09:22.244Z,87.32
2023-09-20T04:10:22.266Z,87.32
2023-09-20T04:11:22.243Z,87.12
2023-09-20T04:12:22.171Z,87.32
2023-09-20T04:13:22.185Z,87.22
2023-09-20T04:14:22.180Z,87.22
2023-09-20T04:15:22.145Z,87.22
2023-09-20T04:16:22.155Z,87.22
2023-09-20T04:17:22.145Z,87.52
2023-09-20T04:18:22.162Z,87.73
2023-09-20T04:19:22.116Z,87.43
2023-09-20T04:20:22.128Z,87.67
2023-09-20T04:21:22.097Z,87.02
2023-09-20T04:22:22.088Z,87.77
2023-09-20T04:23:22.148Z,87.83
2023-09-20T04:24:22.058Z,87.43
2023-09-20T04:25:23.051Z,88.03
2023-09-20T04:26:22.065Z,87.63
2023-09-20T04:27:22.055Z,87.63
2023-09-20T04:28:22.038Z,87.87
2023-09-20T04:29:22.075Z,87.87
2023-09-20T04:30:21.993Z,87.97
2023-09-20T04:31:21.994Z,88.28
2023-09-20T04:32:22.024Z,87.97
2023-09-20T04:33:22.016Z,87.97
2023-09-20T04:34:21.961Z,88.18
2023-09-20T04:35:21.988Z,88.07
2023-09-20T04:36:21.942Z,87.97
2023-09-20T04:37:21.948Z,88.07
2023-09-20T04:38:21.938Z,88.38
2023-09-20T04:39:21.903Z,87.97
2023-09-20T04:40:21.895Z,88.18
2023-09-20T04:41:21.935Z,88.28
2023-09-20T04:42:21.896Z,88.38
2023-09-20T04:43:21.880Z,88.58
2023-09-20T04:44:21.972Z,88.38
2023-09-20T04:45:21.862Z,88.28
2023-09-20T04:46:21.853Z,88.38
2023-09-20T04:47:21.890Z,88.07
2023-09-20T04:48:21.862Z,88.48
2023-09-20T04:49:22.026Z,88.38
2023-09-20T04:50:22.342Z,88.34
2023-09-20T04:51:23.780Z,88.07
2023-09-20T04:52:23.302Z,88.44
2023-09-20T04:53:22.109Z,88.58
2023-09-20T04:54:22.079Z,88.58
2023-09-20T04:55:22.822Z,88.18
2023-09-20T04:56:23.486Z,88.38
2023-09-20T04:57:22.159Z,88.38
2023-09-20T04:58:24.036Z,88.48
2023-09-20T04:59:24.394Z,88.38
2023-09-20T05:00:24.529Z,88.99
2023-09-20T05:01:23.535Z,88.58
2023-09-20T05:02:25.030Z,89.33
2023-09-20T05:03:23.717Z,89.03
2023-09-20T05:04:23.063Z,89.13
2023-09-20T05:05:24.299Z,88.93
2023-09-20T05:06:23.900Z,89.19
2023-09-20T05:07:23.118Z,88.99
2023-09-20T05:08:22.666Z,88.82
2023-09-20T05:09:24.955Z,88.99
2023-09-20T05:10:22.634Z,88.78
2023-09-20T05:11:22.675Z,88.58
2023-09-20T05:12:22.710Z,89.19
2023-09-20T05:13:23.144Z,89.09
2023-09-20T05:14:22.134Z,88.89
2023-09-20T05:15:22.797Z,88.99
2023-09-20T05:16:28.292Z,88.99
2023-09-20T05:17:22.953Z,88.78
2023-09-20T05:18:23.669Z,88.58
2023-09-20T05:19:23.045Z,88.78
2023-09-20T05:20:21.814Z,88.78
2023-09-20T05:21:21.904Z,88.68
2023-09-20T05:22:24.807Z,88.68
2023-09-20T05:23:23.562Z,88.48
2023-09-20T05:24:22.087Z,88.95
2023-09-20T05:25:22.203Z,88.89
2023-09-20T05:26:23.248Z,88.89
2023-09-20T05:27:22.639Z,88.34
2023-09-20T05:28:24.475Z,88.23
2023-09-20T05:29:22.547Z,88.34
2023-09-20T05:30:21.427Z,88.34
2023-09-20T05:31:21.440Z,88.34
2023-09-20T05:32:21.447Z,88.13
2023-09-20T05:33:21.448Z,88.03
2023-09-20T05:34:21.368Z,87.83
2023-09-20T05:35:21.415Z,87.48
2023-09-20T05:36:21.374Z,87.28
2023-09-20T05:37:21.382Z,87.28
2023-09-20T05:38:21.325Z,87.12
2023-09-20T05:39:21.349Z,87.28
2023-09-20T05:40:21.325Z,87.18
2023-09-20T05:41:21.439Z,87.18
2023-09-20T05:42:21.330Z,87.28
2023-09-20T05:43:21.274Z,87.24
2023-09-20T05:44:21.341Z,86.98
2023-09-20T05:45:21.350Z,87.28
2023-09-20T05:46:21.292Z,87.14
2023-09-20T05:47:21.297Z,87.14
2023-09-20T05:48:21.367Z,87.14
2023-09-20T05:49:21.214Z,87.04
2023-09-20T05:50:21.352Z,87.28
2023-09-20T05:51:21.256Z,87.14
2023-09-20T05:52:21.205Z,87.08
2023-09-20T05:53:21.218Z,86.22
2023-09-20T05:54:21.152Z,86.73
2023-09-20T05:55:21.210Z,86.43
2023-09-20T05:56:21.252Z,86.94
2023-09-20T05:57:21.250Z,87.14
2023-09-20T05:58:21.117Z,86.94
2023-09-20T05:59:21.144Z,86.94
2023-09-20T06:00:21.137Z,86.63
2023-09-20T06:01:21.245Z,86.39
2023-09-20T06:02:21.155Z,86.59
2023-09-20T06:03:21.097Z,85.99
2023-09-20T06:04:21.185Z,86.02
2023-09-20T06:05:21.086Z,85.93
2023-09-20T06:06:21.057Z,86.08
2023-09-20T06:07:21.031Z,85.82
2023-09-20T06:08:21.105Z,85.78
2023-09-20T06:09:21.039Z,85.88
2023-09-20T06:10:21.018Z,86.19
2023-09-20T06:11:21.120Z,85.68
2023-09-20T06:12:21.004Z,85.78
2023-09-20T06:13:20.993Z,85.78
2023-09-20T06:14:21.004Z,85.27
2023-09-20T06:15:21.010Z,85.38
2023-09-20T06:16:20.978Z,85.03
2023-09-20T06:17:21.031Z,85.54
2023-09-20T06:18:21.023Z,85.24
2023-09-20T06:19:21.032Z,85.03
2023-09-20T06:20:21.052Z,85.03
2023-09-20T06:21:20.901Z,85.03
2023-09-20T06:22:20.886Z,84.93
2023-09-20T06:23:21.089Z,85.44
2023-09-20T06:24:20.883Z,84.93
2023-09-20T06:25:20.863Z,84.73
2023-09-20T06:26:20.884Z,84.73
2023-09-20T06:27:20.855Z,84.69
2023-09-20T06:28:20.871Z,84.89
2023-09-20T06:29:20.840Z,84.69
2023-09-20T06:30:20.810Z,84.59
2023-09-20T06:31:20.836Z,84.19
2023-09-20T06:32:20.814Z,84.48
2023-09-20T06:33:23.638Z,84.28
2023-09-20T06:34:21.729Z,84.28
2023-09-20T06:35:22.449Z,84.08
2023-09-20T06:36:27.826Z,84.25
2023-09-20T06:37:33.877Z,84.45
2023-09-20T06:38:29.868Z,83.98
2023-09-20T06:39:23.481Z,84.19
2023-09-20T06:40:21.050Z,84.14
2023-09-20T06:41:24.136Z,83.94
2023-09-20T06:42:22.929Z,83.94
2023-09-20T06:43:21.486Z,83.94
2023-09-20T06:44:20.955Z,84.34
2023-09-20T06:45:21.814Z,84.04
2023-09-20T06:46:21.310Z,84.34
2023-09-20T06:47:21.793Z,84.14
2023-09-20T06:48:21.556Z,84.25
2023-09-20T06:49:22.444Z,84.04
2023-09-20T06:50:21.831Z,83.58
2023-09-20T06:51:24.389Z,84.14
2023-09-20T06:52:28.658Z,84.14
2023-09-20T06:53:23.373Z,84.04
2023-09-20T06:54:22.255Z,83.94
2023-09-20T06:55:22.812Z,84.14
2023-09-20T06:56:20.617Z,84.41
2023-09-20T06:57:20.651Z,83.44
2023-09-20T06:58:21.181Z,83.23
2023-09-20T06:59:20.592Z,83.50
2023-09-20T07:00:20.539Z,82.99
2023-09-20T07:01:20.609Z,83.40
2023-09-20T07:02:20.556Z,83.09
2023-09-20T07:03:20.567Z,82.89
2023-09-20T07:04:20.528Z,82.99
2023-09-20T07:05:20.532Z,82.95
2023-09-20T07:06:20.511Z,82.75
2023-09-20T07:07:20.445Z,82.45
2023-09-20T07:08:20.457Z,82.75
2023-09-20T07:09:20.435Z,82.55
2023-09-20T07:10:20.445Z,82.85
2023-09-20T07:11:20.485Z,82.31
2023-09-20T07:12:20.423Z,82.01
2023-09-20T07:13:20.437Z,81.60
2023-09-20T07:14:20.403Z,81.40
2023-09-20T07:15:20.395Z,81.10
2023-09-20T07:16:20.495Z,81.46
2023-09-20T07:17:20.421Z,81.46
2023-09-20T07:18:20.438Z,81.36
2023-09-20T07:19:21.970Z,81.36
2023-09-20T07:20:22.390Z,80.62
2023-09-20T07:21:20.331Z,80.72
2023-09-20T07:22:20.312Z,80.31
2023-09-20T07:23:20.341Z,80.58
2023-09-20T07:24:20.301Z,80.27
2023-09-20T07:25:20.320Z,79.97
2023-09-20T07:26:21.041Z,80.47
2023-09-20T07:27:20.414Z,80.07
2023-09-20T07:28:20.349Z,80.27
2023-09-20T07:29:20.988Z,79.53
2023-09-20T07:30:20.242Z,79.23
2023-09-20T07:31:20.239Z,79.33
2023-09-20T07:32:21.220Z,78.72
2023-09-20T07:33:20.683Z,78.69
2023-09-20T07:34:20.202Z,78.99
2023-09-20T07:35:20.212Z,78.49
2023-09-20T07:37:21.187Z,78.42
2023-09-20T07:38:20.204Z,78.28
2023-09-20T07:39:20.204Z,78.49
2023-09-20T07:40:20.124Z,78.39
2023-09-20T07:41:20.378Z,78.28
2023-09-20T07:42:20.107Z,78.28
2023-09-20T07:43:29.133Z,77.78
2023-09-20T07:44:22.175Z,77.98
2023-09-20T07:45:20.081Z,77.78
2023-09-20T07:46:20.120Z,78.08
2023-09-20T07:47:20.122Z,77.17
2023-09-20T07:48:20.063Z,77.44
2023-09-20T07:49:20.083Z,77.44
2023-09-20T07:50:20.099Z,77.44
2023-09-20T07:51:20.008Z,77.00
2023-09-20T07:52:20.028Z,76.90
2023-09-20T07:53:20.154Z,76.90
2023-09-20T07:54:19.984Z,76.56
2023-09-20T07:55:19.993Z,76.26
2023-09-20T07:56:20.075Z,75.96
2023-09-20T07:57:19.972Z,76.26
2023-09-20T07:58:19.952Z,76.23
2023-09-20T07:59:19.957Z,75.92
2023-09-20T08:00:19.955Z,75.92
2023-09-20T08:01:20.143Z,75.62
2023-09-20T08:02:20.037Z,74.82
2023-09-20T08:03:19.972Z,75.52
2023-09-20T08:04:19.926Z,74.72
2023-09-20T08:05:19.904Z,74.82
2023-09-20T08:06:19.906Z,74.28
2023-09-20T08:07:19.880Z,74.82
2023-09-20T08:08:19.893Z,74.32
2023-09-20T08:09:19.859Z,74.32
2023-09-20T08:10:19.820Z,75.02
2023-09-20T08:11:21.682Z,74.72
2023-09-20T08:12:20.807Z,74.68
2023-09-20T08:13:19.824Z,75.12
2023-09-20T08:14:19.845Z,74.38
2023-09-20T08:15:19.795Z,74.82
2023-09-20T08:16:19.912Z,74.11
2023-09-20T08:17:19.886Z,74.45
2023-09-20T08:18:19.814Z,75.15
2023-09-20T08:19:19.778Z,74.85
2023-09-20T08:20:20.787Z,74.85
2023-09-20T08:21:19.753Z,75.46
2023-09-20T08:22:19.716Z,75.66
2023-09-20T08:23:19.707Z,74.65
2023-09-20T08:24:20.718Z,74.75
2023-09-20T08:25:19.700Z,75.56
2023-09-20T08:26:19.703Z,75.56
2023-09-20T08:27:19.681Z,75.35
2023-09-20T08:28:19.670Z,75.35
2023-09-20T08:29:19.667Z,75.26
2023-09-20T08:30:19.656Z,75.42
2023-09-20T08:31:19.748Z,75.66
2023-09-20T08:32:19.618Z,75.52
2023-09-20T08:33:19.666Z,75.62
2023-09-20T08:34:19.638Z,74.52
2023-09-20T08:35:20.094Z,74.52
2023-09-20T08:36:19.595Z,74.78
2023-09-20T08:37:19.572Z,73.88
2023-09-20T08:38:19.618Z,73.58
2023-09-20T08:39:32.335Z,73.68
2023-09-20T08:40:21.535Z,73.81
2023-09-20T08:41:19.586Z,73.81
2023-09-20T08:42:20.539Z,73.88
2023-09-20T08:43:19.568Z,73.98
2023-09-20T08:44:19.567Z,74.18
2023-09-20T08:45:19.494Z,74.28
2023-09-20T08:46:19.551Z,73.98
2023-09-20T08:47:19.527Z,73.38
2023-09-20T08:48:19.494Z,74.18
2023-09-20T08:49:19.456Z,73.58
2023-09-20T08:50:19.470Z,73.68
2023-09-20T08:51:19.430Z,74.32
2023-09-20T08:52:19.408Z,74.11
2023-09-20T08:53:19.476Z,74.11
2023-09-20T08:54:19.498Z,73.71
2023-09-20T08:55:19.412Z,73.47
2023-09-20T08:56:19.551Z,74.08
2023-09-20T08:57:19.434Z,74.15
2023-09-20T08:58:19.372Z,73.24
2023-09-20T08:59:19.386Z,73.84
2023-09-20T09:00:19.339Z,73.24
2023-09-20T09:01:19.364Z,73.44
2023-09-20T09:02:19.372Z,73.04
2023-09-20T09:03:19.396Z,73.14
2023-09-20T09:04:19.366Z,72.90
2023-09-20T09:05:19.351Z,72.60
2023-09-20T09:06:19.289Z,72.50
2023-09-20T09:07:19.314Z,72.60
2023-09-20T09:08:19.280Z,71.70
2023-09-20T09:09:19.373Z,71.70
2023-09-20T09:10:19.339Z,72.50
2023-09-20T09:11:19.273Z,71.90
2023-09-20T09:12:19.269Z,72.71
2023-09-20T09:13:19.210Z,72.00
2023-09-20T09:14:19.233Z,72.20
2023-09-20T09:15:19.256Z,72.30
2023-09-20T09:16:19.233Z,72.00
2023-09-20T09:17:19.242Z,71.77
2023-09-20T09:18:21.570Z,72.37
2023-09-20T09:19:20.150Z,71.86
2023-09-20T09:20:19.242Z,71.56
2023-09-20T09:21:19.149Z,72.00
2023-09-20T09:22:19.121Z,71.90
2023-09-20T09:23:19.123Z,72.06
2023-09-20T09:24:19.117Z,71.86
2023-09-20T09:25:19.101Z,71.77
2023-09-20T09:26:19.133Z,71.73
2023-09-20T09:27:19.068Z,71.73
2023-09-20T09:28:19.068Z,71.63
2023-09-20T09:29:19.079Z,70.83
2023-09-20T09:30:19.117Z,71.53
2023-09-20T09:31:19.156Z,70.50
2023-09-20T09:32:19.108Z,70.89
2023-09-20T09:33:19.169Z,70.39
2023-09-20T09:34:19.001Z,70.46
2023-09-20T09:35:21.551Z,70.26
2023-09-20T09:36:21.052Z,69.82
2023-09-20T09:37:18.981Z,70.03
2023-09-20T09:38:18.994Z,70.12
2023-09-20T09:39:33.922Z,68.49
2023-09-20T09:40:21.079Z,69.16
2023-09-20T09:41:18.965Z,68.55
2023-09-20T09:42:18.939Z,68.46
2023-09-20T09:43:18.922Z,68.46
2023-09-20T09:44:18.947Z,68.55
2023-09-20T09:45:18.923Z,69.59
2023-09-20T09:46:18.912Z,69.69
2023-09-20T09:47:18.932Z,68.69
2023-09-20T09:48:19.029Z,68.46
2023-09-20T09:49:18.893Z,68.76
2023-09-20T09:50:18.927Z,67.43
2023-09-20T09:51:18.931Z,67.49
2023-09-20T09:52:18.841Z,67.19
2023-09-20T09:53:18.867Z,66.89
2023-09-20T09:54:18.850Z,66.16
2023-09-20T09:55:18.814Z,66.49
2023-09-20T09:56:18.831Z,66.49
2023-09-20T09:57:18.990Z,66.49
2023-09-20T09:58:18.821Z,66.52
2023-09-20T09:59:18.823Z,66.79
2023-09-20T10:00:18.765Z,66.89
2023-09-20T10:01:18.794Z,66.32
2023-09-20T10:02:18.812Z,66.93
2023-09-20T10:03:20.002Z,66.99
2023-09-20T10:04:18.833Z,66.82
2023-09-20T10:05:18.769Z,66.69
2023-09-20T10:06:18.713Z,66.93
2023-09-20T10:07:18.726Z,66.93
2023-09-20T10:08:18.731Z,66.89
2023-09-20T10:09:18.678Z,66.59
2023-09-20T10:10:18.742Z,67.09
2023-09-20T10:11:18.707Z,66.82
2023-09-20T10:12:18.678Z,66.89
2023-09-20T10:13:18.640Z,66.79
2023-09-20T10:14:18.645Z,66.69
2023-09-20T10:15:18.607Z,67.36
2023-09-20T10:16:18.628Z,66.56
2023-09-20T10:17:18.621Z,66.39
2023-09-20T10:18:18.631Z,65.73
2023-09-20T10:19:18.565Z,65.93
2023-09-20T10:20:18.573Z,65.59
2023-09-20T10:21:18.559Z,66.29
2023-09-20T10:22:19.553Z,67.09
2023-09-20T10:23:18.558Z,66.49
2023-09-20T10:24:18.656Z,66.96
2023-09-20T10:25:18.548Z,65.79
2023-09-20T10:26:18.607Z,66.39
2023-09-20T10:27:50.397Z,66.19
2023-09-20T10:28:18.502Z,66.76
2023-09-20T10:29:18.486Z,66.86
2023-09-20T10:30:18.469Z,66.06
2023-09-20T10:31:18.988Z,66.29
2023-09-20T10:32:18.471Z,66.26
2023-09-20T10:33:18.640Z,66.36
2023-09-20T10:34:18.484Z,66.36
2023-09-20T10:35:18.457Z,66.66
2023-09-20T10:36:18.407Z,65.73
2023-09-20T10:37:18.385Z,65.73
2023-09-20T10:38:18.403Z,65.53
2023-09-20T10:39:18.471Z,65.63
2023-09-20T10:40:18.373Z,65.16
2023-09-20T10:41:18.571Z,65.66
2023-09-20T10:42:18.327Z,66.06
2023-09-20T10:43:18.311Z,66.63
2023-09-20T10:44:18.320Z,65.86
2023-09-20T10:45:18.330Z,65.96
2023-09-20T10:46:18.290Z,66.33
2023-09-20T10:47:18.288Z,66.03
2023-09-20T10:48:18.427Z,66.16
2023-09-20T10:49:18.275Z,66.36
2023-09-20T10:50:18.289Z,66.09
2023-09-20T10:51:18.241Z,66.39
2023-09-20T10:52:18.239Z,66.26
2023-09-20T10:53:18.325Z,66.49
2023-09-20T10:54:18.229Z,67.09
2023-09-20T10:55:18.197Z,66.59
2023-09-20T10:56:19.227Z,66.63
2023-09-20T10:57:18.179Z,67.09
2023-09-20T10:58:18.193Z,66.39
2023-09-20T10:59:18.196Z,66.39
2023-09-20T11:00:18.182Z,66.26
2023-09-20T11:01:18.210Z,65.76
2023-09-20T11:02:18.267Z,65.86
2023-09-20T11:03:18.302Z,65.83
2023-09-20T11:04:18.112Z,65.70
2023-09-20T11:05:18.224Z,65.13
2023-09-20T11:06:18.157Z,65.30
2023-09-20T11:07:18.081Z,64.20
2023-09-20T11:08:18.099Z,65.30
2023-09-20T11:09:18.064Z,65.20
2023-09-20T11:10:18.049Z,65.40
2023-09-20T11:11:18.056Z,65.80
2023-09-20T11:12:18.054Z,66.00
2023-09-20T11:13:18.063Z,65.80
2023-09-20T11:14:18.021Z,65.30
2023-09-20T11:15:18.037Z,65.50
2023-09-20T11:16:18.038Z,65.63
2023-09-20T11:17:18.076Z,65.83
2023-09-20T11:18:18.062Z,65.73
2023-09-20T11:19:17.997Z,65.83
2023-09-20T11:20:18.033Z,65.23
2023-09-20T11:21:17.951Z,65.66
2023-09-20T11:22:17.952Z,65.66
2023-09-20T11:23:18.064Z,65.76
2023-09-20T11:24:17.949Z,66.09
2023-09-20T11:25:17.950Z,66.39
2023-09-20T11:26:17.982Z,65.79
2023-09-20T11:27:17.902Z,65.79
2023-09-20T11:28:18.892Z,66.39
2023-09-20T11:29:18.152Z,66.19
2023-09-20T11:30:17.983Z,66.13
2023-09-20T11:31:17.911Z,66.42
2023-09-20T11:32:17.884Z,66.59
2023-09-20T11:33:17.879Z,66.89
2023-09-20T11:34:17.812Z,66.69
2023-09-20T11:35:17.879Z,66.89
2023-09-20T11:36:17.824Z,66.69
2023-09-20T11:37:17.817Z,67.09
2023-09-20T11:38:17.804Z,66.59
2023-09-20T11:39:17.764Z,67.09
2023-09-20T11:40:17.770Z,66.89
2023-09-20T11:41:17.789Z,66.59
2023-09-20T11:42:17.744Z,66.49
2023-09-20T11:43:17.719Z,66.29
2023-09-20T11:44:18.784Z,66.59
2023-09-20T11:45:44.416Z,66.36
2023-09-20T11:46:19.755Z,66.39
2023-09-20T11:47:17.703Z,66.26
2023-09-20T11:48:17.745Z,66.26
2023-09-20T11:49:17.676Z,65.96
2023-09-20T11:50:17.710Z,65.36
2023-09-20T11:51:17.645Z,65.83
2023-09-20T11:52:17.642Z,65.53
2023-09-20T11:53:17.664Z,65.30
2023-09-20T11:54:17.640Z,65.43
2023-09-20T11:55:17.614Z,64.20
2023-09-20T11:56:17.608Z,65.20
2023-09-20T11:57:18.592Z,64.87
2023-09-20T11:58:17.577Z,64.17
2023-09-20T11:59:17.613Z,64.27
2023-09-20T12:00:17.563Z,64.37
2023-09-20T12:01:17.593Z,64.54
2023-09-20T12:02:17.623Z,63.37
2023-09-20T12:03:17.657Z,63.77
2023-09-20T12:04:17.675Z,62.34
2023-09-20T12:05:17.521Z,63.54
2023-09-20T12:06:17.507Z,63.24
2023-09-20T12:07:17.492Z,63.44
2023-09-20T12:08:17.511Z,63.01
2023-09-20T12:09:17.488Z,62.91
2023-09-20T12:10:17.468Z,62.31
2023-09-20T12:11:17.482Z,62.41
2023-09-20T12:12:17.445Z,62.71
2023-09-20T12:13:17.522Z,63.11
2023-09-20T12:14:17.463Z,62.41
2023-09-20T12:15:17.412Z,62.74
2023-09-20T12:16:18.439Z,61.91
2023-09-20T12:17:17.417Z,62.51
2023-09-20T12:18:17.445Z,62.34
2023-09-20T12:19:17.368Z,63.11
2023-09-20T12:20:17.449Z,62.01
2023-09-20T12:21:17.356Z,61.91
2023-09-20T12:22:17.343Z,62.54
2023-09-20T12:23:17.389Z,62.64
2023-09-20T12:24:17.347Z,62.54
2023-09-20T12:25:17.309Z,62.34
2023-09-20T12:26:17.339Z,62.51
2023-09-20T12:27:18.126Z,62.81
2023-09-20T12:28:17.306Z,62.88
2023-09-20T12:29:17.291Z,62.26
2023-09-20T12:30:17.271Z,62.05
2023-09-20T12:31:17.315Z,60.83
2023-09-20T12:32:17.276Z,61.13
2023-09-20T12:33:17.272Z,60.11
2023-09-20T12:34:17.236Z,60.33
2023-09-20T12:35:17.235Z,59.94
2023-09-20T12:36:17.209Z,60.33
2023-09-20T12:37:17.218Z,60.43
2023-09-20T12:38:17.200Z,60.33
2023-09-20T12:39:17.175Z,60.33
2023-09-20T12:40:17.226Z,60.26
2023-09-20T12:41:17.177Z,60.86
2023-09-20T12:42:17.169Z,60.39
2023-09-20T12:43:17.239Z,60.79
2023-09-20T12:44:17.160Z,60.99
2023-09-20T12:45:17.170Z,61.32
2023-09-20T12:46:17.160Z,61.61
2023-09-20T12:47:17.134Z,61.79
2023-09-20T12:48:17.216Z,62.41
2023-09-20T12:49:17.078Z,62.81
2023-09-20T12:50:17.084Z,62.81
2023-09-20T12:51:17.079Z,63.01
2023-09-20T12:52:17.053Z,62.54
2023-09-20T12:53:17.078Z,63.11